createdAt,value
2023-04-06T00:03:44.637Z,100982.77
2023-04-06T00:08:46.284Z,100983.30
2023-04-06T00:13:47.848Z,100980.70
2023-04-06T00:18:49.364Z,100971.38
2023-04-06T00:23:50.962Z,100965.56
2023-04-06T00:28:53.524Z,100964.98
2023-04-06T00:33:55.426Z,100962.71
2023-04-06T00:38:57.182Z,100955.05
2023-04-06T00:43:58.952Z,100947.16
2023-04-06T00:49:00.545Z,100942.41
2023-04-06T00:54:02.104Z,100934.98
2023-04-06T00:59:04.020Z,100929.16
2023-04-06T01:04:05.615Z,100931.02
2023-04-06T01:09:07.531Z,100930.77
2023-04-06T01:14:09.476Z,100932.73
2023-04-06T01:19:12.706Z,100932.02
2023-04-06T01:24:14.214Z,100926.56
2023-04-06T01:29:15.864Z,100921.58
2023-04-06T01:34:17.737Z,100918.81
2023-04-06T01:39:20.592Z,100913.09
2023-04-06T01:44:22.115Z,100909.17
2023-04-06T01:49:23.753Z,100907.83
2023-04-06T01:54:25.258Z,100903.39
2023-04-06T01:59:26.885Z,100905.88
2023-04-06T02:04:28.584Z,100902.60
2023-04-06T02:09:30.587Z,100904.29
2023-04-06T02:14:32.204Z,100898.75
2023-04-06T02:19:33.733Z,100892.73
2023-04-06T02:24:35.357Z,100888.39
2023-04-06T02:29:36.938Z,100882.55
2023-04-06T02:34:38.459Z,100877.33
2023-04-06T02:39:39.969Z,100874.89
2023-04-06T02:44:41.607Z,100876.14
2023-04-06T02:49:43.128Z,100876.47
2023-04-06T02:54:44.824Z,100874.51
2023-04-06T02:59:46.368Z,100875.68
2023-04-06T03:04:48.583Z,100874.33
2023-04-06T03:09:50.138Z,100873.98
2023-04-06T03:14:51.761Z,100880.06
2023-04-06T03:19:53.363Z,100880.95
2023-04-06T03:24:54.869Z,100880.13
2023-04-06T03:29:56.408Z,100878.58
2023-04-06T03:34:57.958Z,100880.77
2023-04-06T03:39:59.476Z,100885.16
2023-04-06T03:45:01.109Z,100877.55
2023-04-06T03:50:03.812Z,100882.42
2023-04-06T03:55:06.307Z,100878.86
2023-04-06T04:00:08.827Z,100877.17
2023-04-06T04:05:10.739Z,100869.72
2023-04-06T04:10:12.349Z,100870.59
2023-04-06T04:15:13.957Z,100868.63
2023-04-06T04:20:16.690Z,100867.51
2023-04-06T04:25:18.185Z,100867.61
2023-04-06T04:30:26.646Z,100862.61
2023-04-06T04:35:28.640Z,100863.31
2023-04-06T04:40:30.600Z,100857.03
2023-04-06T04:45:32.300Z,100852.06
2023-04-06T04:50:33.859Z,100849.45
2023-04-06T04:55:35.371Z,100846.99
2023-04-06T05:00:38.347Z,100847.57
2023-04-06T05:05:39.877Z,100846.33
2023-04-06T05:10:41.606Z,100846.23
2023-04-06T05:15:43.544Z,100846.58
2023-04-06T05:20:45.091Z,100844.52
2023-04-06T05:25:46.822Z,100843.05
2023-04-06T05:30:48.523Z,100838.54
2023-04-06T05:35:50.059Z,100834.21
2023-04-06T05:40:51.569Z,100832.38
2023-04-06T05:45:53.074Z,100832.69
2023-04-06T05:50:56.194Z,100836.79
2023-04-06T05:55:57.734Z,100827.16
2023-04-06T06:01:04.014Z,100831.56
2023-04-06T06:06:06.163Z,100825.05
2023-04-06T06:11:07.733Z,100818.72
2023-04-06T06:16:09.264Z,100816.14
2023-04-06T06:21:12.989Z,100816.21
2023-04-06T06:26:14.700Z,100809.54
2023-04-06T06:31:17.205Z,100806.05
2023-04-06T06:36:19.198Z,100804.86
2023-04-06T06:41:20.883Z,100803.61
2023-04-06T06:46:23.053Z,100806.19
2023-04-06T06:51:24.678Z,100817.02
2023-04-06T06:56:27.770Z,100810.05
2023-04-06T07:01:29.421Z,100809.94
2023-04-06T07:06:31.049Z,100791.78
2023-04-06T07:11:32.630Z,100792.45
2023-04-06T07:16:34.166Z,100803.47
2023-04-06T07:21:36.403Z,100803.70
2023-04-06T07:26:37.905Z,100800.83
2023-04-06T07:31:39.617Z,100799.86
2023-04-06T07:36:41.224Z,100798.81
2023-04-06T07:41:42.768Z,100795.13
2023-04-06T07:46:44.491Z,100797.47
2023-04-06T07:51:46.055Z,100791.86
2023-04-06T07:56:47.563Z,100793.06
2023-04-06T08:01:49.796Z,100788.16
2023-04-06T08:06:51.332Z,100784.02
2023-04-06T08:11:52.868Z,100781.98
2023-04-06T08:16:54.481Z,100778.44
2023-04-06T08:21:56.334Z,100776.39
2023-04-06T08:26:57.901Z,100770.23
2023-04-06T08:31:59.531Z,100783.14
2023-04-06T08:37:01.489Z,100776.23
2023-04-06T08:42:04.117Z,100778.65
2023-04-06T08:47:06.661Z,100773.80
2023-04-06T08:52:11.894Z,100762.37
2023-04-06T08:57:13.926Z,100759.88
2023-04-06T09:02:18.734Z,100754.38
2023-04-06T09:07:33.236Z,100738.75
2023-04-06T09:12:36.749Z,100732.23
2023-04-06T09:17:38.367Z,100737.90
2023-04-06T09:22:42.422Z,100733.12
2023-04-06T09:27:45.495Z,100744.68
2023-04-06T09:32:51.715Z,100729.20
2023-04-06T09:37:54.355Z,100732.30
2023-04-06T09:42:58.581Z,100727.61
2023-04-06T09:48:01.026Z,100722.85
2023-04-06T09:53:04.015Z,100721.55
2023-04-06T09:58:08.037Z,100711.84
2023-04-06T10:03:30.381Z,100708.41
2023-04-06T10:08:34.402Z,100696.39
2023-04-06T10:13:36.079Z,100689.67
2023-04-06T10:18:40.608Z,100684.39
2023-04-06T10:23:45.162Z,100683.96
2023-04-06T10:28:47.846Z,100678.83
2023-04-06T10:34:00.916Z,100673.23
2023-04-06T10:39:04.668Z,100670.09
2023-04-06T10:44:06.439Z,100661.79
2023-04-06T10:49:15.440Z,100659.05
2023-04-06T10:54:17.938Z,100651.98
2023-04-06T10:59:22.742Z,100642.57
2023-04-06T11:04:26.173Z,100641.56
2023-04-06T11:09:29.896Z,100645.40
2023-04-06T11:14:31.963Z,100650.89
2023-04-06T11:19:34.371Z,100639.05
2023-04-06T11:24:35.921Z,100637.43
2023-04-06T11:29:39.153Z,100626.95
2023-04-06T11:34:42.025Z,100619.71
2023-04-06T11:39:51.780Z,100611.45
2023-04-06T11:44:56.130Z,100612.28
2023-04-06T11:50:10.355Z,100608.05
2023-04-06T11:55:13.625Z,100595.50
2023-04-06T12:00:16.638Z,100595.65
2023-04-06T12:05:18.578Z,100605.95
2023-04-06T12:10:20.183Z,100598.64
2023-04-06T12:15:21.752Z,100598.41
2023-04-06T12:20:26.883Z,100597.44
2023-04-06T12:25:30.054Z,100594.83
2023-04-06T12:30:39.691Z,100585.77
2023-04-06T12:35:41.193Z,100579.82
2023-04-06T12:40:44.178Z,100583.48
2023-04-06T12:45:45.687Z,100567.91
2023-04-06T12:51:05.197Z,100572.02
2023-04-06T12:56:14.838Z,100563.56
2023-04-06T13:01:16.986Z,100550.15
2023-04-06T13:06:18.660Z,100548.61
2023-04-06T13:11:22.816Z,100548.33
2023-04-06T13:16:24.225Z,100547.97
2023-04-06T13:21:25.922Z,100549.11
2023-04-06T13:26:27.620Z,100540.28
2023-04-06T13:31:29.933Z,100545.27
2023-04-06T13:36:32.765Z,100537.25
2023-04-06T13:41:34.323Z,100526.33
2023-04-06T13:46:35.914Z,100515.53
2023-04-06T13:51:37.447Z,100508.63
2023-04-06T13:56:38.944Z,100501.58
2023-04-06T14:01:40.809Z,100505.31
2023-04-06T14:06:42.490Z,100514.23
2023-04-06T14:11:43.982Z,100507.61
2023-04-06T14:16:46.145Z,100506.77
2023-04-06T14:21:49.498Z,100506.73
2023-04-06T14:26:50.996Z,100488.57
2023-04-06T14:31:52.487Z,100486.71
2023-04-06T14:36:54.225Z,100497.70
2023-04-06T14:41:55.711Z,100505.35
2023-04-06T14:46:57.199Z,100501.03
2023-04-06T14:52:00.434Z,100493.75
2023-04-06T14:57:02.947Z,100478.30
2023-04-06T15:02:04.732Z,100474.23
2023-04-06T15:07:06.686Z,100477.48
2023-04-06T15:12:08.561Z,100481.52
2023-04-06T15:17:10.335Z,100475.01
2023-04-06T15:22:12.535Z,100473.30
2023-04-06T15:27:14.071Z,100472.58
2023-04-06T15:32:15.872Z,100475.98
2023-04-06T15:37:17.710Z,100468.30
2023-04-06T15:42:19.227Z,100476.93
2023-04-06T15:47:21.208Z,100472.23
2023-04-06T15:52:22.937Z,100468.65
2023-04-06T15:57:24.508Z,100469.85
2023-04-06T16:02:26.756Z,100466.17
2023-04-06T16:07:29.074Z,100458.68
2023-04-06T16:12:33.944Z,100453.58
2023-04-06T16:17:35.630Z,100457.48
2023-04-06T16:22:37.124Z,100462.52
2023-04-06T16:27:38.601Z,100460.56
2023-04-06T16:32:40.135Z,100463.17
2023-04-06T16:37:41.676Z,100464.67
2023-04-06T16:42:44.072Z,100467.32
2023-04-06T16:47:45.667Z,100475.34
2023-04-06T16:52:47.282Z,100473.29
2023-04-06T16:57:49.386Z,100465.75
2023-04-06T17:02:51.325Z,100466.81
2023-04-06T17:07:53.827Z,100462.92
2023-04-06T17:12:55.377Z,100452.02
2023-04-06T17:17:57.923Z,100454.75
2023-04-06T17:22:59.665Z,100453.23
2023-04-06T17:28:01.283Z,100469.14
2023-04-06T17:33:02.981Z,100459.91
2023-04-06T17:38:04.530Z,100456.36
2023-04-06T17:43:06.079Z,100451.73
2023-04-06T17:48:07.865Z,100456.17
2023-04-06T17:53:09.507Z,100455.84
2023-04-06T17:58:11.121Z,100450.05
2023-04-06T18:03:12.619Z,100443.77
2023-04-06T18:08:14.877Z,100449.56
2023-04-06T18:13:17.147Z,100455.35
2023-04-06T18:18:18.630Z,100444.87
2023-04-06T18:23:20.251Z,100438.23
2023-04-06T18:28:22.065Z,100440.75
2023-04-06T18:33:23.677Z,100440.11
2023-04-06T18:38:25.350Z,100431.77
2023-04-06T18:43:26.947Z,100437.20
2023-04-06T18:48:28.529Z,100443.70
2023-04-06T18:53:30.344Z,100438.09
2023-04-06T18:58:32.005Z,100434.20
2023-04-06T19:03:33.755Z,100426.77
2023-04-06T19:08:35.744Z,100422.37
2023-04-06T19:13:39.122Z,100429.23
2023-04-06T19:18:45.481Z,100427.86
2023-04-06T19:23:50.168Z,100422.95
2023-04-06T19:28:51.783Z,100424.83
2023-04-06T19:33:53.437Z,100417.90
2023-04-06T19:38:55.226Z,100419.81
2023-04-06T19:43:56.753Z,100420.48
2023-04-06T19:48:58.279Z,100415.25
2023-04-06T19:54:00.930Z,100417.30
2023-04-06T19:59:02.568Z,100418.83
2023-04-06T20:04:04.155Z,100417.80
2023-04-06T20:09:05.840Z,100417.46
2023-04-06T20:14:07.550Z,100412.35
2023-04-06T20:19:09.071Z,100399.27
2023-04-06T20:24:11.659Z,100394.89
2023-04-06T20:29:13.183Z,100397.42
2023-04-06T20:34:14.880Z,100412.59
2023-04-06T20:39:16.508Z,100413.64
2023-04-06T20:44:19.200Z,100406.35
2023-04-06T20:49:23.624Z,100404.96
2023-04-06T20:54:25.692Z,100407.38
2023-04-06T20:59:27.810Z,100401.06
2023-04-06T21:04:29.453Z,100396.80
2023-04-06T21:09:31.906Z,100389.98
2023-04-06T21:14:34.302Z,100384.73
2023-04-06T21:19:35.820Z,100381.54
2023-04-06T21:24:37.376Z,100380.69
2023-04-06T21:29:39.925Z,100376.94
2023-04-06T21:34:42.636Z,100365.39
2023-04-06T21:39:44.132Z,100361.67
2023-04-06T21:44:45.604Z,100358.78
2023-04-06T21:49:47.192Z,100357.42
2023-04-06T21:54:48.814Z,100351.12
2023-04-06T21:59:50.349Z,100352.48
2023-04-06T22:04:52.024Z,100347.38
2023-04-06T22:09:53.909Z,100345.33
2023-04-06T22:14:55.585Z,100338.52
2023-04-06T22:19:57.114Z,100335.81
2023-04-06T22:25:00.465Z,100326.48
2023-04-06T22:30:02.605Z,100318.48
2023-04-06T22:35:04.310Z,100321.03
2023-04-06T22:40:06.472Z,100316.27
2023-04-06T22:45:09.704Z,100312.20
2023-04-06T22:50:11.463Z,100304.05
2023-04-06T22:55:12.997Z,100305.59
2023-04-06T23:00:22.051Z,100300.15
2023-04-06T23:05:23.707Z,100297.77
2023-04-06T23:10:25.429Z,100291.50
2023-04-06T23:15:27.168Z,100287.42
2023-04-06T23:20:28.698Z,100285.54
2023-04-06T23:25:30.439Z,100277.55
2023-04-06T23:30:32.699Z,100273.30
2023-04-06T23:35:34.491Z,100272.09
2023-04-06T23:40:38.441Z,100273.28
2023-04-06T23:45:42.137Z,100273.29
2023-04-06T23:50:43.611Z,100272.45
2023-04-06T23:55:45.275Z,100267.16
